Uraga Maru — JD2163 — position and weather

sailwx.info

Track history (hours):
 
Tides and Currents Weather Stations Pressure Air Temp Water Temp Dewpoint Dewpoint Depression Visibility Wind Speed Wind Dir Waves Ship Positions

Uraga Maru

Last reported at 2016-Feb-11 04:17 UTC. Time now 2016-Feb-11 17:01 UTC.
Position N 35°17' E 139°41'.

Length 40 m; draft 2.8 m.

Type: Tug. MMSI: 431101119.

Date/timePositionNaut miles runAvg speedWind from/ knotsBaromVisibWave heightAir tempDewpointWater temp
2016-Feb-11 04:17N 35°17' E 139°41'6 8.8
2016-Feb-11 03:33N 35°23' E 139°45'8 7.6
2016-Feb-11 02:33N 35°15' E 139°47'1 1.4
2016-Feb-11 01:30N 35°14' E 139°46'5 2.5
2016-Feb-10 23:24N 35°17' E 139°41'0 0.4
2016-Feb-10 22:33N 35°17' E 139°41'2 2.4
2016-Feb-10 21:33N 35°19' E 139°39'2 0.1
2016-Feb-10 07:33N 35°19' E 139°41'1 0.7
2016-Feb-10 06:16N 35°19' E 139°40'2 2.3
2016-Feb-10 05:33N 35°20' E 139°41'5 4.7
2016-Feb-10 04:33N 35°24' E 139°44'9 9.1
2016-Feb-10 03:33N 35°29' E 139°53'9 8.8
2016-Feb-10 02:33N 35°23' E 139°46'1111.2
2016-Feb-10 01:33N 35°12' E 139°47'3 3.3
2016-Feb-10 00:33N 35°15' E 139°46'5 4.6
2016-Feb-09 23:33N 35°17' E 139°41'0 0.0
2016-Feb-09 22:33N 35°17' E 139°41'0 0.0
2016-Feb-09 21:33N 35°17' E 139°41'0 0.0
2016-Feb-09 20:34N 35°17' E 139°41'0 0.0
2016-Feb-09 19:33N 35°17' E 139°41'0 0.0
2016-Feb-09 18:33N 35°17' E 139°41'0 0.0
2016-Feb-09 17:34N 35°17' E 139°41'0 0.0
2016-Feb-09 16:33N 35°17' E 139°41'0 0.0
2016-Feb-09 15:33N 35°17' E 139°41'0 0.0
2016-Feb-09 14:33N 35°17' E 139°41'0 0.0
2016-Feb-09 13:33N 35°17' E 139°41'0 0.0
2016-Feb-09 12:33N 35°17' E 139°41'0 0.0
2016-Feb-09 11:33N 35°17' E 139°41'0 0.0
2016-Feb-09 10:33N 35°17' E 139°41'0 0.0
2016-Feb-09 09:33N 35°17' E 139°41'0 0.0
2016-Feb-09 08:33N 35°17' E 139°41'0 0.0
2016-Feb-09 07:33N 35°17' E 139°41'0 0.0
2016-Feb-09 06:33N 35°17' E 139°41'0 0.0
2016-Feb-09 05:33N 35°17' E 139°41'4 3.9
2016-Feb-09 04:33N 35°21' E 139°43'1110.9
2016-Feb-09 03:33N 35°10' E 139°47'8 8.5
2016-Feb-09 02:33N 35°18' E 139°42'1 1.4
2016-Feb-09 01:33N 35°17' E 139°41'0 0.0
2016-Feb-08 22:06N 35°17' E 139°41'611.4
2016-Feb-08 21:33N 35°23' E 139°42'10 9.9
2016-Feb-08 20:33N 35°14' E 139°47'1 1.0
2016-Feb-08 19:33N 35°14' E 139°46'5 0.5
2016-Feb-08 08:30N 35°17' E 139°41'8 8.8
2016-Feb-08 07:33N 35°24' E 139°46'1211.9
2016-Feb-08 06:33N 35°12' E 139°47'1 0.3
2016-Feb-08 03:33N 35°12' E 139°46'1010.4
2016-Feb-08 02:34N 35°22' E 139°42'1212.3
2016-Feb-08 01:33N 35°30' E 139°53'3 2.7
2016-Feb-08 00:33N 35°31' E 139°56'9 8.7
2016-Feb-07 23:33N 35°25' E 139°48'1010.3
2016-Feb-07 22:33N 35°17' E 139°41'0 0.0
2016-Feb-07 21:33N 35°17' E 139°41'0 0.0
2016-Feb-07 20:33N 35°17' E 139°41'0 0.0
2016-Feb-07 19:33N 35°17' E 139°41'0 0.0
2016-Feb-07 18:33N 35°17' E 139°41'0 0.0
2016-Feb-07 17:33N 35°17' E 139°41'0 0.0
2016-Feb-07 16:33N 35°17' E 139°41'0 0.0
2016-Feb-07 15:33N 35°17' E 139°41'0 0.0
2016-Feb-07 14:33N 35°17' E 139°41'0 0.0
2016-Feb-07 13:33N 35°17' E 139°41'0 0.0
2016-Feb-07 12:33N 35°17' E 139°41'0 0.0
2016-Feb-07 11:33N 35°17' E 139°41'0 0.0
2016-Feb-07 10:33N 35°17' E 139°41'0 0.0
2016-Feb-07 09:33N 35°17' E 139°41'0 0.0
2016-Feb-07 08:33N 35°17' E 139°41'0 0.0
2016-Feb-07 07:33N 35°17' E 139°41'0 0.0
2016-Feb-07 06:33N 35°17' E 139°41'0 0.0
2016-Feb-07 05:33N 35°17' E 139°41'0 0.0
2016-Feb-07 04:33N 35°17' E 139°41'4 3.5
2016-Feb-07 03:33N 35°16' E 139°45'2 1.8
2016-Feb-07 02:29N 35°15' E 139°46'1011.3
2016-Feb-07 01:33N 35°25' E 139°44'1110.9
2016-Feb-07 00:33N 35°29' E 139°57'1 1.0
2016-Feb-06 23:33N 35°29' E 139°58'9 9.0
2016-Feb-06 22:33N 35°24' E 139°49'9 9.2
2016-Feb-06 21:31N 35°17' E 139°41'0 0.0
2016-Feb-06 20:33N 35°17' E 139°41'0 0.0
2016-Feb-06 19:32N 35°17' E 139°41'0 0.0
2016-Feb-06 18:33N 35°17' E 139°41'0 0.0
2016-Feb-06 17:33N 35°17' E 139°41'0 0.0
2016-Feb-06 16:33N 35°17' E 139°41'0 0.0
2016-Feb-06 15:33N 35°17' E 139°41'0 0.0
2016-Feb-06 14:33N 35°17' E 139°41'0 0.0
2016-Feb-06 13:33N 35°17' E 139°41'0 0.0
2016-Feb-06 12:33N 35°17' E 139°41'0 0.0
2016-Feb-06 11:33N 35°17' E 139°41'0 0.0
2016-Feb-06 10:33N 35°17' E 139°41'9 9.3
2016-Feb-06 09:33N 35°25' E 139°46'1211.9
2016-Feb-06 08:33N 35°32' E 139°58'6 5.7
2016-Feb-06 07:33N 35°33' E 140°05'0 0.0
2016-Feb-06 06:33N 35°33' E 140°05'0 0.1
2016-Feb-06 05:33N 35°33' E 140°05'2 1.9
2016-Feb-06 04:33N 35°33' E 140°03'0 0.0
2016-Feb-06 03:33N 35°33' E 140°03'0 0.0
2016-Feb-06 02:33N 35°33' E 140°03'0 0.1
2016-Feb-06 01:33N 35°33' E 140°03'1010.2
2016-Feb-06 00:33N 35°29' E 139°52'1110.7
2016-Feb-05 23:34N 35°20' E 139°44'1010.0
2016-Feb-05 22:33N 35°10' E 139°46'8 7.9
2016-Feb-05 21:33N 35°17' E 139°43'2 2.1
2016-Feb-05 20:33N 35°17' E 139°41'0 0.0
2016-Feb-05 19:33N 35°17' E 139°41'0 0.0
2016-Feb-05 18:33N 35°17' E 139°41'0 0.0
2016-Feb-05 17:33N 35°17' E 139°41'0 0.0
2016-Feb-05 16:33N 35°17' E 139°41'0 0.0
2016-Feb-05 15:34N 35°17' E 139°41'0 0.0
2016-Feb-05 14:32N 35°17' E 139°41'0 0.0
2016-Feb-05 13:33N 35°17' E 139°41'0 0.0
2016-Feb-05 12:33N 35°17' E 139°41'0 0.0
2016-Feb-05 11:33N 35°17' E 139°41'0 0.0
2016-Feb-05 10:33N 35°17' E 139°41'0 0.0
2016-Feb-05 08:29N 35°17' E 139°41'8 8.1
2016-Feb-05 07:33N 35°23' E 139°45'2 1.9
2016-Feb-05 06:33N 35°25' E 139°47'10 9.7
2016-Feb-05 05:33N 35°15' E 139°47'1 1.2
2016-Feb-05 04:30N 35°14' E 139°46'5 3.9
2016-Feb-05 03:13N 35°17' E 139°41'2 2.8
2016-Feb-05 02:33N 35°19' E 139°42'8 7.5
2016-Feb-05 01:33N 35°12' E 139°47'3 3.2
2016-Feb-05 00:31N 35°13' E 139°43'4 4.1
2016-Feb-04 23:29N 35°17' E 139°41'0 0.2
2016-Feb-04 22:33N 35°17' E 139°41'1 0.9
2016-Feb-04 21:33N 35°18' E 139°42'0 0.0
2016-Feb-04 02:33N 35°18' E 139°41'7 6.9
2016-Feb-04 01:33N 35°24' E 139°46'1212.0
2016-Feb-04 00:33N 35°12' E 139°47'1 1.4
2016-Feb-03 23:33N 35°10' E 139°47'1010.3
2016-Feb-03 22:33N 35°20' E 139°43'7 6.6
2016-Feb-03 21:33N 35°23' E 139°49'2 1.9
2016-Feb-03 20:33N 35°22' E 139°48'6 0.5
2016-Feb-03 08:31N 35°18' E 139°42'5 5.3
2016-Feb-03 07:32N 35°15' E 139°47'1 1.0
2016-Feb-03 06:29N 35°15' E 139°45'4 4.8
2016-Feb-03 05:33N 35°17' E 139°41'2 2.4
2016-Feb-03 04:33N 35°19' E 139°41'2 2.2
2016-Feb-03 03:33N 35°17' E 139°41'0 0.0
2016-Feb-02 19:08N 35°17' E 139°41'0 0.0
2016-Feb-02 18:29N 35°17' E 139°41'0 0.0
2016-Feb-02 17:33N 35°17' E 139°41'0 0.0
2016-Feb-02 16:29N 35°17' E 139°41'0 0.0
2016-Feb-02 15:33N 35°17' E 139°41'0 0.0
2016-Feb-02 14:33N 35°17' E 139°41'0 0.0
2016-Feb-02 13:32N 35°17' E 139°41'0 0.0
2016-Feb-02 12:33N 35°17' E 139°41'0 0.0
2016-Feb-02 11:33N 35°17' E 139°41'0 0.0
2016-Feb-02 01:28N 35°17' E 139°41'0 0.0
2016-Feb-01 22:17N 35°17' E 139°41'6 7.7
2016-Feb-01 21:34N 35°22' E 139°43'6 5.6
2016-Feb-01 20:33N 35°17' E 139°45'6 6.3
2016-Feb-01 19:32N 35°11' E 139°45'3 3.0
2016-Feb-01 18:30N 35°13' E 139°43'0 0.0
2016-Feb-01 17:30N 35°13' E 139°43'0 0.0
2016-Feb-01 16:29N 35°13' E 139°43'0 0.1
2016-Feb-01 15:15N 35°13' E 139°43'4 5.2
2016-Feb-01 14:32N 35°17' E 139°45'4 4.5
2016-Feb-01 13:33N 35°19' E 139°41'1 0.7
2016-Feb-01 12:33N 35°19' E 139°40'0 0.2
2016-Feb-01 11:33N 35°19' E 139°40'5 5.1
2016-Feb-01 10:32N 35°16' E 139°46'1010.0
2016-Feb-01 09:34N 35°26' E 139°43'1 1.3
2016-Feb-01 08:33N 35°27' E 139°42'4 4.2
2016-Feb-01 07:33N 35°24' E 139°46'1211.6
2016-Feb-01 06:32N 35°12' E 139°47'5 5.6
2016-Feb-01 05:33N 35°17' E 139°44'3 3.0
2016-Feb-01 04:33N 35°17' E 139°41'  
Track history (hours):
 
Tides and Currents Weather Stations Pressure Air Temp Water Temp Dewpoint Dewpoint Depression Visibility Wind Speed Wind Dir Waves Ship Positions

Uraga Maru

Last reported at 2016-Feb-11 04:17 UTC. Time now 2016-Feb-11 17:01 UTC.
Position N 35°17' E 139°41'.

Length 40 m; draft 2.8 m.

Type: Tug. MMSI: 431101119.

Date/timePositionNaut miles runAvg speedWind from/ knotsBaromVisibWave heightAir tempDewpointWater temp
2016-Feb-11 04:17N 35°17' E 139°41'6 8.8
2016-Feb-11 03:33N 35°23' E 139°45'8 7.6
2016-Feb-11 02:33N 35°15' E 139°47'1 1.4
2016-Feb-11 01:30N 35°14' E 139°46'5 2.5
2016-Feb-10 23:24N 35°17' E 139°41'0 0.4
2016-Feb-10 22:33N 35°17' E 139°41'2 2.4
2016-Feb-10 21:33N 35°19' E 139°39'2 0.1
2016-Feb-10 07:33N 35°19' E 139°41'1 0.7
2016-Feb-10 06:16N 35°19' E 139°40'2 2.3
2016-Feb-10 05:33N 35°20' E 139°41'5 4.7
2016-Feb-10 04:33N 35°24' E 139°44'9 9.1
2016-Feb-10 03:33N 35°29' E 139°53'9 8.8
2016-Feb-10 02:33N 35°23' E 139°46'1111.2
2016-Feb-10 01:33N 35°12' E 139°47'3 3.3
2016-Feb-10 00:33N 35°15' E 139°46'5 4.6
2016-Feb-09 23:33N 35°17' E 139°41'0 0.0
2016-Feb-09 22:33N 35°17' E 139°41'0 0.0
2016-Feb-09 21:33N 35°17' E 139°41'0 0.0
2016-Feb-09 20:34N 35°17' E 139°41'0 0.0
2016-Feb-09 19:33N 35°17' E 139°41'0 0.0
2016-Feb-09 18:33N 35°17' E 139°41'0 0.0
2016-Feb-09 17:34N 35°17' E 139°41'0 0.0
2016-Feb-09 16:33N 35°17' E 139°41'0 0.0
2016-Feb-09 15:33N 35°17' E 139°41'0 0.0
2016-Feb-09 14:33N 35°17' E 139°41'0 0.0
2016-Feb-09 13:33N 35°17' E 139°41'0 0.0
2016-Feb-09 12:33N 35°17' E 139°41'0 0.0
2016-Feb-09 11:33N 35°17' E 139°41'0 0.0
2016-Feb-09 10:33N 35°17' E 139°41'0 0.0
2016-Feb-09 09:33N 35°17' E 139°41'0 0.0
2016-Feb-09 08:33N 35°17' E 139°41'0 0.0
2016-Feb-09 07:33N 35°17' E 139°41'0 0.0
2016-Feb-09 06:33N 35°17' E 139°41'0 0.0
2016-Feb-09 05:33N 35°17' E 139°41'4 3.9
2016-Feb-09 04:33N 35°21' E 139°43'1110.9
2016-Feb-09 03:33N 35°10' E 139°47'8 8.5
2016-Feb-09 02:33N 35°18' E 139°42'1 1.4
2016-Feb-09 01:33N 35°17' E 139°41'0 0.0
2016-Feb-08 22:06N 35°17' E 139°41'611.4
2016-Feb-08 21:33N 35°23' E 139°42'10 9.9
2016-Feb-08 20:33N 35°14' E 139°47'1 1.0
2016-Feb-08 19:33N 35°14' E 139°46'5 0.5
2016-Feb-08 08:30N 35°17' E 139°41'8 8.8
2016-Feb-08 07:33N 35°24' E 139°46'1211.9
2016-Feb-08 06:33N 35°12' E 139°47'1 0.3
2016-Feb-08 03:33N 35°12' E 139°46'1010.4
2016-Feb-08 02:34N 35°22' E 139°42'1212.3
2016-Feb-08 01:33N 35°30' E 139°53'3 2.7
2016-Feb-08 00:33N 35°31' E 139°56'9 8.7
2016-Feb-07 23:33N 35°25' E 139°48'1010.3
2016-Feb-07 22:33N 35°17' E 139°41'0 0.0
2016-Feb-07 21:33N 35°17' E 139°41'0 0.0
2016-Feb-07 20:33N 35°17' E 139°41'0 0.0
2016-Feb-07 19:33N 35°17' E 139°41'0 0.0
2016-Feb-07 18:33N 35°17' E 139°41'0 0.0
2016-Feb-07 17:33N 35°17' E 139°41'0 0.0
2016-Feb-07 16:33N 35°17' E 139°41'0 0.0
2016-Feb-07 15:33N 35°17' E 139°41'0 0.0
2016-Feb-07 14:33N 35°17' E 139°41'0 0.0
2016-Feb-07 13:33N 35°17' E 139°41'0 0.0
2016-Feb-07 12:33N 35°17' E 139°41'0 0.0
2016-Feb-07 11:33N 35°17' E 139°41'0 0.0
2016-Feb-07 10:33N 35°17' E 139°41'0 0.0
2016-Feb-07 09:33N 35°17' E 139°41'0 0.0
2016-Feb-07 08:33N 35°17' E 139°41'0 0.0
2016-Feb-07 07:33N 35°17' E 139°41'0 0.0
2016-Feb-07 06:33N 35°17' E 139°41'0 0.0
2016-Feb-07 05:33N 35°17' E 139°41'0 0.0
2016-Feb-07 04:33N 35°17' E 139°41'4 3.5
2016-Feb-07 03:33N 35°16' E 139°45'2 1.8
2016-Feb-07 02:29N 35°15' E 139°46'1011.3
2016-Feb-07 01:33N 35°25' E 139°44'1110.9
2016-Feb-07 00:33N 35°29' E 139°57'1 1.0
2016-Feb-06 23:33N 35°29' E 139°58'9 9.0
2016-Feb-06 22:33N 35°24' E 139°49'9 9.2
2016-Feb-06 21:31N 35°17' E 139°41'0 0.0
2016-Feb-06 20:33N 35°17' E 139°41'0 0.0
2016-Feb-06 19:32N 35°17' E 139°41'0 0.0
2016-Feb-06 18:33N 35°17' E 139°41'0 0.0
2016-Feb-06 17:33N 35°17' E 139°41'0 0.0
2016-Feb-06 16:33N 35°17' E 139°41'0 0.0
2016-Feb-06 15:33N 35°17' E 139°41'0 0.0
2016-Feb-06 14:33N 35°17' E 139°41'0 0.0
2016-Feb-06 13:33N 35°17' E 139°41'0 0.0
2016-Feb-06 12:33N 35°17' E 139°41'0 0.0
2016-Feb-06 11:33N 35°17' E 139°41'0 0.0
2016-Feb-06 10:33N 35°17' E 139°41'9 9.3
2016-Feb-06 09:33N 35°25' E 139°46'1211.9
2016-Feb-06 08:33N 35°32' E 139°58'6 5.7
2016-Feb-06 07:33N 35°33' E 140°05'0 0.0
2016-Feb-06 06:33N 35°33' E 140°05'0 0.1
2016-Feb-06 05:33N 35°33' E 140°05'2 1.9
2016-Feb-06 04:33N 35°33' E 140°03'0 0.0
2016-Feb-06 03:33N 35°33' E 140°03'0 0.0
2016-Feb-06 02:33N 35°33' E 140°03'0 0.1
2016-Feb-06 01:33N 35°33' E 140°03'1010.2
2016-Feb-06 00:33N 35°29' E 139°52'1110.7
2016-Feb-05 23:34N 35°20' E 139°44'1010.0
2016-Feb-05 22:33N 35°10' E 139°46'8 7.9
2016-Feb-05 21:33N 35°17' E 139°43'2 2.1
2016-Feb-05 20:33N 35°17' E 139°41'0 0.0
2016-Feb-05 19:33N 35°17' E 139°41'0 0.0
2016-Feb-05 18:33N 35°17' E 139°41'0 0.0
2016-Feb-05 17:33N 35°17' E 139°41'0 0.0
2016-Feb-05 16:33N 35°17' E 139°41'0 0.0
2016-Feb-05 15:34N 35°17' E 139°41'0 0.0
2016-Feb-05 14:32N 35°17' E 139°41'0 0.0
2016-Feb-05 13:33N 35°17' E 139°41'0 0.0
2016-Feb-05 12:33N 35°17' E 139°41'0 0.0
2016-Feb-05 11:33N 35°17' E 139°41'0 0.0
2016-Feb-05 10:33N 35°17' E 139°41'0 0.0
2016-Feb-05 08:29N 35°17' E 139°41'8 8.1
2016-Feb-05 07:33N 35°23' E 139°45'2 1.9
2016-Feb-05 06:33N 35°25' E 139°47'10 9.7
2016-Feb-05 05:33N 35°15' E 139°47'1 1.2
2016-Feb-05 04:30N 35°14' E 139°46'5 3.9
2016-Feb-05 03:13N 35°17' E 139°41'2 2.8
2016-Feb-05 02:33N 35°19' E 139°42'8 7.5
2016-Feb-05 01:33N 35°12' E 139°47'3 3.2
2016-Feb-05 00:31N 35°13' E 139°43'4 4.1
2016-Feb-04 23:29N 35°17' E 139°41'0 0.2
2016-Feb-04 22:33N 35°17' E 139°41'1 0.9
2016-Feb-04 21:33N 35°18' E 139°42'0 0.0
2016-Feb-04 02:33N 35°18' E 139°41'7 6.9
2016-Feb-04 01:33N 35°24' E 139°46'1212.0
2016-Feb-04 00:33N 35°12' E 139°47'1 1.4
2016-Feb-03 23:33N 35°10' E 139°47'1010.3
2016-Feb-03 22:33N 35°20' E 139°43'7 6.6
2016-Feb-03 21:33N 35°23' E 139°49'2 1.9
2016-Feb-03 20:33N 35°22' E 139°48'6 0.5
2016-Feb-03 08:31N 35°18' E 139°42'5 5.3
2016-Feb-03 07:32N 35°15' E 139°47'1 1.0
2016-Feb-03 06:29N 35°15' E 139°45'4 4.8
2016-Feb-03 05:33N 35°17' E 139°41'2 2.4
2016-Feb-03 04:33N 35°19' E 139°41'2 2.2
2016-Feb-03 03:33N 35°17' E 139°41'0 0.0
2016-Feb-02 19:08N 35°17' E 139°41'0 0.0
2016-Feb-02 18:29N 35°17' E 139°41'0 0.0
2016-Feb-02 17:33N 35°17' E 139°41'0 0.0
2016-Feb-02 16:29N 35°17' E 139°41'0 0.0
2016-Feb-02 15:33N 35°17' E 139°41'0 0.0
2016-Feb-02 14:33N 35°17' E 139°41'0 0.0
2016-Feb-02 13:32N 35°17' E 139°41'0 0.0
2016-Feb-02 12:33N 35°17' E 139°41'0 0.0
2016-Feb-02 11:33N 35°17' E 139°41'0 0.0
2016-Feb-02 01:28N 35°17' E 139°41'0 0.0
2016-Feb-01 22:17N 35°17' E 139°41'6 7.7
2016-Feb-01 21:34N 35°22' E 139°43'6 5.6
2016-Feb-01 20:33N 35°17' E 139°45'6 6.3
2016-Feb-01 19:32N 35°11' E 139°45'3 3.0
2016-Feb-01 18:30N 35°13' E 139°43'0 0.0
2016-Feb-01 17:30N 35°13' E 139°43'0 0.0
2016-Feb-01 16:29N 35°13' E 139°43'0 0.1
2016-Feb-01 15:15N 35°13' E 139°43'4 5.2
2016-Feb-01 14:32N 35°17' E 139°45'4 4.5
2016-Feb-01 13:33N 35°19' E 139°41'1 0.7
2016-Feb-01 12:33N 35°19' E 139°40'0 0.2
2016-Feb-01 11:33N 35°19' E 139°40'5 5.1
2016-Feb-01 10:32N 35°16' E 139°46'1010.0
2016-Feb-01 09:34N 35°26' E 139°43'1 1.3
2016-Feb-01 08:33N 35°27' E 139°42'4 4.2
2016-Feb-01 07:33N 35°24' E 139°46'1211.6
2016-Feb-01 06:32N 35°12' E 139°47'5 5.6
2016-Feb-01 05:33N 35°17' E 139°44'3 3.0
2016-Feb-01 04:33N 35°17' E 139°41'  

Dump ship's entire track history